sensor_id;sensor_type;location;lat;lon;timestamp;P1;durP1;ratioP1;P2;durP2;ratioP2
8562;SDS011;16392;52.508;13.468;2022-09-24T00:00:54;435.10;;;99.00;;
8562;SDS011;16392;52.508;13.468;2022-09-24T00:03:22;430.67;;;97.33;;
8562;SDS011;16392;52.508;13.468;2022-09-24T00:05:50;429.70;;;95.23;;
8562;SDS011;16392;52.508;13.468;2022-09-24T00:08:18;428.23;;;91.17;;
8562;SDS011;16392;52.508;13.468;2022-09-24T00:10:46;431.43;;;89.40;;
8562;SDS011;16392;52.508;13.468;2022-09-24T00:13:13;428.93;;;90.57;;
8562;SDS011;16392;52.508;13.468;2022-09-24T00:15:43;425.38;;;89.43;;
8562;SDS011;16392;52.508;13.468;2022-09-24T00:18:12;427.60;;;89.93;;
8562;SDS011;16392;52.508;13.468;2022-09-24T00:20:40;425.00;;;87.30;;
8562;SDS011;16392;52.508;13.468;2022-09-24T00:23:08;427.73;;;89.27;;
8562;SDS011;16392;52.508;13.468;2022-09-24T00:25:38;425.60;;;90.07;;
8562;SDS011;16392;52.508;13.468;2022-09-24T00:28:28;427.63;;;87.87;;
8562;SDS011;16392;52.508;13.468;2022-09-24T00:30:55;424.50;;;90.00;;
8562;SDS011;16392;52.508;13.468;2022-09-24T00:33:24;427.97;;;92.77;;
8562;SDS011;16392;52.508;13.468;2022-09-24T00:35:56;423.83;;;86.50;;
8562;SDS011;16392;52.508;13.468;2022-09-24T00:38:25;427.37;;;90.40;;
8562;SDS011;16392;52.508;13.468;2022-09-24T00:40:51;426.93;;;91.07;;
8562;SDS011;16392;52.508;13.468;2022-09-24T00:43:24;428.57;;;90.87;;
8562;SDS011;16392;52.508;13.468;2022-09-24T00:45:54;424.10;;;88.80;;
8562;SDS011;16392;52.508;13.468;2022-09-24T00:48:25;427.87;;;90.00;;
8562;SDS011;16392;52.508;13.468;2022-09-24T00:50:51;427.03;;;85.97;;
8562;SDS011;16392;52.508;13.468;2022-09-24T00:53:19;423.30;;;86.87;;
8562;SDS011;16392;52.508;13.468;2022-09-24T00:55:48;425.07;;;88.80;;
8562;SDS011;16392;52.508;13.468;2022-09-24T00:58:19;424.40;;;87.60;;
8562;SDS011;16392;52.508;13.468;2022-09-24T01:00:47;424.30;;;90.90;;
8562;SDS011;16392;52.508;13.468;2022-09-24T01:03:16;426.37;;;95.20;;
8562;SDS011;16392;52.508;13.468;2022-09-24T01:05:46;426.83;;;89.10;;
8562;SDS011;16392;52.508;13.468;2022-09-24T01:08:13;424.50;;;88.10;;
8562;SDS011;16392;52.508;13.468;2022-09-24T01:10:44;421.30;;;86.10;;
8562;SDS011;16392;52.508;13.468;2022-09-24T01:13:32;421.30;;;84.83;;
8562;SDS011;16392;52.508;13.468;2022-09-24T01:16:09;425.90;;;89.47;;
8562;SDS011;16392;52.508;13.468;2022-09-24T01:18:45;423.93;;;87.63;;
8562;SDS011;16392;52.508;13.468;2022-09-24T01:21:22;423.47;;;89.47;;
8562;SDS011;16392;52.508;13.468;2022-09-24T01:24:03;421.00;;;86.03;;
8562;SDS011;16392;52.508;13.468;2022-09-24T01:26:47;422.70;;;87.30;;
8562;SDS011;16392;52.508;13.468;2022-09-24T01:29:23;423.93;;;86.20;;
8562;SDS011;16392;52.508;13.468;2022-09-24T01:31:56;422.77;;;91.30;;
8562;SDS011;16392;52.508;13.468;2022-09-24T01:34:33;422.70;;;92.57;;
8562;SDS011;16392;52.508;13.468;2022-09-24T01:37:04;424.53;;;93.50;;
8562;SDS011;16392;52.508;13.468;2022-09-24T01:39:31;418.17;;;84.43;;
8562;SDS011;16392;52.508;13.468;2022-09-24T01:42:00;422.73;;;88.93;;
8562;SDS011;16392;52.508;13.468;2022-09-24T01:44:28;423.53;;;91.63;;
8562;SDS011;16392;52.508;13.468;2022-09-24T01:46:56;422.93;;;85.13;;
8562;SDS011;16392;52.508;13.468;2022-09-24T01:49:23;420.80;;;83.70;;
8562;SDS011;16392;52.508;13.468;2022-09-24T01:51:51;423.23;;;90.67;;
8562;SDS011;16392;52.508;13.468;2022-09-24T01:54:24;422.03;;;85.37;;
8562;SDS011;16392;52.508;13.468;2022-09-24T01:56:55;422.13;;;86.87;;
8562;SDS011;16392;52.508;13.468;2022-09-24T01:59:27;421.93;;;88.60;;
8562;SDS011;16392;52.508;13.468;2022-09-24T02:02:00;419.77;;;85.97;;
8562;SDS011;16392;52.508;13.468;2022-09-24T02:04:30;422.27;;;86.13;;
8562;SDS011;16392;52.508;13.468;2022-09-24T02:07:03;420.47;;;84.70;;
8562;SDS011;16392;52.508;13.468;2022-09-24T02:09:37;422.10;;;85.57;;
8562;SDS011;16392;52.508;13.468;2022-09-24T02:12:07;419.47;;;86.30;;
8562;SDS011;16392;52.508;13.468;2022-09-24T02:14:39;425.90;;;88.33;;
8562;SDS011;16392;52.508;13.468;2022-09-24T02:17:10;420.43;;;87.63;;
8562;SDS011;16392;52.508;13.468;2022-09-24T02:19:40;421.40;;;86.77;;
8562;SDS011;16392;52.508;13.468;2022-09-24T02:22:07;424.33;;;93.47;;
8562;SDS011;16392;52.508;13.468;2022-09-24T02:24:39;424.13;;;87.07;;
8562;SDS011;16392;52.508;13.468;2022-09-24T02:27:10;422.93;;;89.77;;
8562;SDS011;16392;52.508;13.468;2022-09-24T02:29:38;426.00;;;91.67;;
8562;SDS011;16392;52.508;13.468;2022-09-24T02:32:05;425.97;;;94.20;;
8562;SDS011;16392;52.508;13.468;2022-09-24T02:34:35;419.63;;;84.97;;
8562;SDS011;16392;52.508;13.468;2022-09-24T02:37:04;423.97;;;87.93;;
8562;SDS011;16392;52.508;13.468;2022-09-24T02:39:33;422.33;;;88.30;;
8562;SDS011;16392;52.508;13.468;2022-09-24T02:42:00;425.47;;;89.97;;
8562;SDS011;16392;52.508;13.468;2022-09-24T02:44:28;423.90;;;87.93;;
8562;SDS011;16392;52.508;13.468;2022-09-24T02:46:57;421.07;;;86.17;;
8562;SDS011;16392;52.508;13.468;2022-09-24T02:49:24;423.37;;;87.00;;
8562;SDS011;16392;52.508;13.468;2022-09-24T02:51:51;423.03;;;87.57;;
8562;SDS011;16392;52.508;13.468;2022-09-24T02:54:18;423.57;;;89.93;;
8562;SDS011;16392;52.508;13.468;2022-09-24T02:56:44;424.97;;;91.23;;
8562;SDS011;16392;52.508;13.468;2022-09-24T02:59:11;423.20;;;87.43;;
8562;SDS011;16392;52.508;13.468;2022-09-24T03:01:37;424.00;;;86.03;;
8562;SDS011;16392;52.508;13.468;2022-09-24T03:04:05;420.57;;;85.43;;
8562;SDS011;16392;52.508;13.468;2022-09-24T03:06:32;424.77;;;92.97;;
8562;SDS011;16392;52.508;13.468;2022-09-24T03:08:59;426.30;;;94.00;;
8562;SDS011;16392;52.508;13.468;2022-09-24T03:11:26;423.93;;;91.33;;
8562;SDS011;16392;52.508;13.468;2022-09-24T03:13:54;419.60;;;85.77;;
8562;SDS011;16392;52.508;13.468;2022-09-24T03:16:20;420.40;;;84.87;;
8562;SDS011;16392;52.508;13.468;2022-09-24T03:18:47;422.00;;;86.30;;
8562;SDS011;16392;52.508;13.468;2022-09-24T03:21:15;422.07;;;89.63;;
8562;SDS011;16392;52.508;13.468;2022-09-24T03:23:43;423.80;;;92.40;;
8562;SDS011;16392;52.508;13.468;2022-09-24T03:26:10;420.60;;;86.97;;
8562;SDS011;16392;52.508;13.468;2022-09-24T03:28:37;420.07;;;86.43;;
8562;SDS011;16392;52.508;13.468;2022-09-24T03:31:04;424.33;;;85.73;;
8562;SDS011;16392;52.508;13.468;2022-09-24T03:33:33;422.33;;;90.50;;
8562;SDS011;16392;52.508;13.468;2022-09-24T03:36:01;422.63;;;88.40;;
8562;SDS011;16392;52.508;13.468;2022-09-24T03:38:32;422.53;;;87.37;;
8562;SDS011;16392;52.508;13.468;2022-09-24T03:41:01;419.13;;;88.53;;
8562;SDS011;16392;52.508;13.468;2022-09-24T03:43:29;422.83;;;89.23;;
8562;SDS011;16392;52.508;13.468;2022-09-24T03:45:56;423.80;;;90.43;;
8562;SDS011;16392;52.508;13.468;2022-09-24T03:48:23;421.30;;;89.87;;
8562;SDS011;16392;52.508;13.468;2022-09-24T03:50:51;423.80;;;90.67;;
8562;SDS011;16392;52.508;13.468;2022-09-24T03:53:19;423.23;;;87.30;;
8562;SDS011;16392;52.508;13.468;2022-09-24T03:55:51;418.10;;;84.67;;
8562;SDS011;16392;52.508;13.468;2022-09-24T03:58:19;422.67;;;89.23;;
8562;SDS011;16392;52.508;13.468;2022-09-24T04:00:46;422.87;;;88.57;;
8562;SDS011;16392;52.508;13.468;2022-09-24T04:03:12;421.77;;;88.00;;
8562;SDS011;16392;52.508;13.468;2022-09-24T04:05:39;423.33;;;88.60;;
8562;SDS011;16392;52.508;13.468;2022-09-24T04:08:07;425.40;;;93.97;;
8562;SDS011;16392;52.508;13.468;2022-09-24T04:10:34;421.13;;;86.90;;
8562;SDS011;16392;52.508;13.468;2022-09-24T04:13:02;419.50;;;87.37;;
8562;SDS011;16392;52.508;13.468;2022-09-24T04:15:29;420.63;;;88.23;;
8562;SDS011;16392;52.508;13.468;2022-09-24T04:17:57;422.80;;;88.00;;
8562;SDS011;16392;52.508;13.468;2022-09-24T04:20:25;426.53;;;89.17;;
8562;SDS011;16392;52.508;13.468;2022-09-24T04:22:54;420.93;;;87.10;;
8562;SDS011;16392;52.508;13.468;2022-09-24T04:25:22;421.50;;;86.60;;
8562;SDS011;16392;52.508;13.468;2022-09-24T04:27:51;419.40;;;86.90;;
8562;SDS011;16392;52.508;13.468;2022-09-24T04:30:20;418.00;;;85.47;;
8562;SDS011;16392;52.508;13.468;2022-09-24T04:32:47;418.13;;;84.60;;
8562;SDS011;16392;52.508;13.468;2022-09-24T04:35:15;422.90;;;90.30;;
8562;SDS011;16392;52.508;13.468;2022-09-24T04:37:43;418.13;;;82.83;;
8562;SDS011;16392;52.508;13.468;2022-09-24T04:40:10;420.77;;;85.53;;
8562;SDS011;16392;52.508;13.468;2022-09-24T04:42:37;422.13;;;87.23;;
8562;SDS011;16392;52.508;13.468;2022-09-24T04:45:04;423.43;;;87.03;;
8562;SDS011;16392;52.508;13.468;2022-09-24T04:47:33;419.97;;;84.27;;
8562;SDS011;16392;52.508;13.468;2022-09-24T04:50:00;420.90;;;85.53;;
8562;SDS011;16392;52.508;13.468;2022-09-24T04:52:27;421.37;;;85.90;;
8562;SDS011;16392;52.508;13.468;2022-09-24T04:54:56;421.43;;;86.43;;
8562;SDS011;16392;52.508;13.468;2022-09-24T04:57:23;422.00;;;85.33;;
8562;SDS011;16392;52.508;13.468;2022-09-24T04:59:55;418.37;;;87.37;;
8562;SDS011;16392;52.508;13.468;2022-09-24T05:02:22;419.13;;;85.87;;
8562;SDS011;16392;52.508;13.468;2022-09-24T05:04:50;426.17;;;90.00;;
8562;SDS011;16392;52.508;13.468;2022-09-24T05:07:16;416.97;;;84.23;;
8562;SDS011;16392;52.508;13.468;2022-09-24T05:09:43;418.27;;;85.47;;
8562;SDS011;16392;52.508;13.468;2022-09-24T05:12:10;419.17;;;84.97;;
8562;SDS011;16392;52.508;13.468;2022-09-24T05:14:37;420.07;;;85.40;;
8562;SDS011;16392;52.508;13.468;2022-09-24T05:17:03;420.07;;;86.97;;
8562;SDS011;16392;52.508;13.468;2022-09-24T05:19:30;420.43;;;85.80;;
8562;SDS011;16392;52.508;13.468;2022-09-24T05:21:58;418.63;;;83.90;;
8562;SDS011;16392;52.508;13.468;2022-09-24T05:24:25;422.27;;;91.23;;
8562;SDS011;16392;52.508;13.468;2022-09-24T05:26:51;422.13;;;87.50;;
8562;SDS011;16392;52.508;13.468;2022-09-24T05:29:37;418.17;;;88.07;;
8562;SDS011;16392;52.508;13.468;2022-09-24T05:32:06;420.53;;;86.40;;
8562;SDS011;16392;52.508;13.468;2022-09-24T05:34:34;418.13;;;86.47;;
8562;SDS011;16392;52.508;13.468;2022-09-24T05:37:02;418.53;;;85.87;;
8562;SDS011;16392;52.508;13.468;2022-09-24T05:39:29;424.83;;;85.27;;
8562;SDS011;16392;52.508;13.468;2022-09-24T05:41:56;421.97;;;86.67;;
8562;SDS011;16392;52.508;13.468;2022-09-24T05:44:23;418.40;;;85.83;;
8562;SDS011;16392;52.508;13.468;2022-09-24T05:46:50;416.93;;;84.23;;
8562;SDS011;16392;52.508;13.468;2022-09-24T05:49:17;420.07;;;85.30;;
8562;SDS011;16392;52.508;13.468;2022-09-24T05:51:45;421.93;;;87.30;;
8562;SDS011;16392;52.508;13.468;2022-09-24T05:54:14;420.73;;;86.00;;
8562;SDS011;16392;52.508;13.468;2022-09-24T05:56:41;427.93;;;94.27;;
8562;SDS011;16392;52.508;13.468;2022-09-24T05:59:08;422.50;;;89.57;;
8562;SDS011;16392;52.508;13.468;2022-09-24T06:01:35;424.58;;;89.65;;
8562;SDS011;16392;52.508;13.468;2022-09-24T06:04:02;426.07;;;88.73;;
8562;SDS011;16392;52.508;13.468;2022-09-24T06:06:28;423.00;;;89.77;;
8562;SDS011;16392;52.508;13.468;2022-09-24T06:08:55;425.50;;;90.70;;
8562;SDS011;16392;52.508;13.468;2022-09-24T06:11:23;426.27;;;92.23;;
8562;SDS011;16392;52.508;13.468;2022-09-24T06:13:51;425.80;;;91.83;;
8562;SDS011;16392;52.508;13.468;2022-09-24T06:16:18;431.87;;;95.60;;
8562;SDS011;16392;52.508;13.468;2022-09-24T06:18:45;431.90;;;94.43;;
8562;SDS011;16392;52.508;13.468;2022-09-24T06:21:12;428.33;;;95.23;;
8562;SDS011;16392;52.508;13.468;2022-09-24T06:23:41;427.50;;;95.30;;
8562;SDS011;16392;52.508;13.468;2022-09-24T06:26:11;426.73;;;96.30;;
8562;SDS011;16392;52.508;13.468;2022-09-24T06:28:40;426.50;;;89.23;;
8562;SDS011;16392;52.508;13.468;2022-09-24T06:31:07;428.13;;;95.43;;
8562;SDS011;16392;52.508;13.468;2022-09-24T06:33:36;427.33;;;90.73;;
8562;SDS011;16392;52.508;13.468;2022-09-24T06:36:04;423.00;;;87.17;;
8562;SDS011;16392;52.508;13.468;2022-09-24T06:38:31;432.00;;;94.53;;
8562;SDS011;16392;52.508;13.468;2022-09-24T06:40:59;427.90;;;91.37;;
8562;SDS011;16392;52.508;13.468;2022-09-24T06:43:27;428.73;;;98.47;;
8562;SDS011;16392;52.508;13.468;2022-09-24T06:45:55;430.27;;;93.73;;
8562;SDS011;16392;52.508;13.468;2022-09-24T06:48:22;430.53;;;96.77;;
8562;SDS011;16392;52.508;13.468;2022-09-24T06:50:50;429.83;;;93.20;;
8562;SDS011;16392;52.508;13.468;2022-09-24T06:53:18;434.80;;;102.17;;
8562;SDS011;16392;52.508;13.468;2022-09-24T06:55:45;431.03;;;96.97;;
8562;SDS011;16392;52.508;13.468;2022-09-24T06:58:14;431.53;;;94.87;;
8562;SDS011;16392;52.508;13.468;2022-09-24T07:00:42;431.33;;;98.57;;
8562;SDS011;16392;52.508;13.468;2022-09-24T07:03:16;433.13;;;96.07;;
8562;SDS011;16392;52.508;13.468;2022-09-24T07:05:43;433.00;;;95.72;;
8562;SDS011;16392;52.508;13.468;2022-09-24T07:08:09;433.63;;;100.47;;
8562;SDS011;16392;52.508;13.468;2022-09-24T07:10:36;430.58;;;96.95;;
8562;SDS011;16392;52.508;13.468;2022-09-24T07:13:06;435.63;;;99.50;;
8562;SDS011;16392;52.508;13.468;2022-09-24T07:15:33;432.60;;;96.53;;
8562;SDS011;16392;52.508;13.468;2022-09-24T07:17:59;430.37;;;95.80;;
8562;SDS011;16392;52.508;13.468;2022-09-24T07:20:27;434.90;;;100.43;;
8562;SDS011;16392;52.508;13.468;2022-09-24T07:22:54;439.20;;;105.10;;
8562;SDS011;16392;52.508;13.468;2022-09-24T07:25:21;430.88;;;98.80;;
8562;SDS011;16392;52.508;13.468;2022-09-24T07:27:48;435.50;;;102.10;;
8562;SDS011;16392;52.508;13.468;2022-09-24T07:30:14;432.45;;;94.40;;
8562;SDS011;16392;52.508;13.468;2022-09-24T07:32:41;432.77;;;99.72;;
8562;SDS011;16392;52.508;13.468;2022-09-24T07:35:08;438.85;;;101.60;;
8562;SDS011;16392;52.508;13.468;2022-09-24T07:37:36;437.15;;;103.05;;
8562;SDS011;16392;52.508;13.468;2022-09-24T07:40:03;439.73;;;101.10;;
8562;SDS011;16392;52.508;13.468;2022-09-24T07:42:30;440.20;;;100.33;;
8562;SDS011;16392;52.508;13.468;2022-09-24T07:44:56;435.90;;;99.32;;
8562;SDS011;16392;52.508;13.468;2022-09-24T07:47:24;434.30;;;99.80;;
8562;SDS011;16392;52.508;13.468;2022-09-24T07:49:51;439.67;;;104.88;;
8562;SDS011;16392;52.508;13.468;2022-09-24T07:52:18;437.20;;;101.93;;
8562;SDS011;16392;52.508;13.468;2022-09-24T07:54:45;437.40;;;102.70;;
8562;SDS011;16392;52.508;13.468;2022-09-24T07:57:12;435.80;;;101.18;;
8562;SDS011;16392;52.508;13.468;2022-09-24T07:59:39;435.30;;;104.87;;
8562;SDS011;16392;52.508;13.468;2022-09-24T08:02:12;439.83;;;106.77;;
8562;SDS011;16392;52.508;13.468;2022-09-24T08:04:41;439.03;;;104.33;;
8562;SDS011;16392;52.508;13.468;2022-09-24T08:07:07;440.67;;;106.40;;
8562;SDS011;16392;52.508;13.468;2022-09-24T08:09:35;442.05;;;103.55;;
8562;SDS011;16392;52.508;13.468;2022-09-24T08:12:03;440.27;;;107.40;;
8562;SDS011;16392;52.508;13.468;2022-09-24T08:14:30;444.33;;;114.82;;
8562;SDS011;16392;52.508;13.468;2022-09-24T08:16:57;441.20;;;106.25;;
8562;SDS011;16392;52.508;13.468;2022-09-24T08:19:23;448.80;;;116.28;;
8562;SDS011;16392;52.508;13.468;2022-09-24T08:21:52;443.55;;;111.97;;
8562;SDS011;16392;52.508;13.468;2022-09-24T08:24:18;448.20;;;116.03;;
8562;SDS011;16392;52.508;13.468;2022-09-24T08:26:45;447.30;;;109.30;;
8562;SDS011;16392;52.508;13.468;2022-09-24T08:29:13;440.75;;;106.00;;
8562;SDS011;16392;52.508;13.468;2022-09-24T08:31:40;446.92;;;113.70;;
8562;SDS011;16392;52.508;13.468;2022-09-24T08:34:07;444.13;;;110.22;;
8562;SDS011;16392;52.508;13.468;2022-09-24T08:36:33;444.52;;;111.85;;
8562;SDS011;16392;52.508;13.468;2022-09-24T08:39:00;446.70;;;113.80;;
8562;SDS011;16392;52.508;13.468;2022-09-24T08:41:31;443.85;;;112.20;;
8562;SDS011;16392;52.508;13.468;2022-09-24T08:44:14;444.58;;;112.22;;
8562;SDS011;16392;52.508;13.468;2022-09-24T08:47:08;445.83;;;111.32;;
8562;SDS011;16392;52.508;13.468;2022-09-24T08:49:48;447.67;;;117.20;;
8562;SDS011;16392;52.508;13.468;2022-09-24T08:52:23;448.67;;;114.85;;
8562;SDS011;16392;52.508;13.468;2022-09-24T08:54:55;452.88;;;123.90;;
8562;SDS011;16392;52.508;13.468;2022-09-24T08:57:26;449.80;;;122.45;;
8562;SDS011;16392;52.508;13.468;2022-09-24T08:59:55;453.95;;;123.35;;
8562;SDS011;16392;52.508;13.468;2022-09-24T09:02:27;451.20;;;121.57;;
8562;SDS011;16392;52.508;13.468;2022-09-24T09:05:07;450.70;;;120.63;;
8562;SDS011;16392;52.508;13.468;2022-09-24T09:07:44;451.60;;;116.88;;
8562;SDS011;16392;52.508;13.468;2022-09-24T09:10:20;457.05;;;124.47;;
8562;SDS011;16392;52.508;13.468;2022-09-24T09:12:53;451.13;;;118.15;;
8562;SDS011;16392;52.508;13.468;2022-09-24T09:15:25;457.55;;;119.20;;
8562;SDS011;16392;52.508;13.468;2022-09-24T09:17:55;454.13;;;126.88;;
8562;SDS011;16392;52.508;13.468;2022-09-24T09:20:26;458.85;;;133.82;;
8562;SDS011;16392;52.508;13.468;2022-09-24T09:22:56;458.65;;;131.02;;
8562;SDS011;16392;52.508;13.468;2022-09-24T09:25:29;459.42;;;137.15;;
8562;SDS011;16392;52.508;13.468;2022-09-24T09:28:01;462.77;;;138.05;;
8562;SDS011;16392;52.508;13.468;2022-09-24T09:30:42;461.05;;;142.27;;
8562;SDS011;16392;52.508;13.468;2022-09-24T09:33:21;461.55;;;141.38;;
8562;SDS011;16392;52.508;13.468;2022-09-24T09:36:00;464.42;;;145.38;;
8562;SDS011;16392;52.508;13.468;2022-09-24T09:38:36;463.42;;;143.20;;
8562;SDS011;16392;52.508;13.468;2022-09-24T09:41:10;463.70;;;145.07;;
8562;SDS011;16392;52.508;13.468;2022-09-24T09:43:45;457.70;;;137.88;;
8562;SDS011;16392;52.508;13.468;2022-09-24T09:46:14;463.02;;;142.68;;
8562;SDS011;16392;52.508;13.468;2022-09-24T09:48:49;461.13;;;140.05;;
8562;SDS011;16392;52.508;13.468;2022-09-24T09:51:20;459.98;;;142.52;;
8562;SDS011;16392;52.508;13.468;2022-09-24T09:53:55;459.80;;;139.50;;
8562;SDS011;16392;52.508;13.468;2022-09-24T09:56:24;462.08;;;144.20;;
8562;SDS011;16392;52.508;13.468;2022-09-24T09:58:59;465.05;;;145.32;;
8562;SDS011;16392;52.508;13.468;2022-09-24T10:01:33;461.40;;;144.43;;
8562;SDS011;16392;52.508;13.468;2022-09-24T10:04:01;460.10;;;139.02;;
8562;SDS011;16392;52.508;13.468;2022-09-24T10:06:30;462.55;;;147.20;;
8562;SDS011;16392;52.508;13.468;2022-09-24T10:09:10;457.20;;;132.32;;
8562;SDS011;16392;52.508;13.468;2022-09-24T10:11:39;461.48;;;142.55;;
8562;SDS011;16392;52.508;13.468;2022-09-24T10:14:08;458.83;;;142.15;;
8562;SDS011;16392;52.508;13.468;2022-09-24T10:16:38;459.50;;;140.30;;
8562;SDS011;16392;52.508;13.468;2022-09-24T10:19:12;459.75;;;141.50;;
8562;SDS011;16392;52.508;13.468;2022-09-24T10:21:41;461.33;;;142.70;;
8562;SDS011;16392;52.508;13.468;2022-09-24T10:24:11;460.05;;;141.20;;
8562;SDS011;16392;52.508;13.468;2022-09-24T10:26:41;461.20;;;143.48;;
8562;SDS011;16392;52.508;13.468;2022-09-24T10:29:10;459.50;;;142.65;;
8562;SDS011;16392;52.508;13.468;2022-09-24T10:31:59;457.45;;;137.55;;
8562;SDS011;16392;52.508;13.468;2022-09-24T10:34:27;461.73;;;144.43;;
8562;SDS011;16392;52.508;13.468;2022-09-24T10:36:57;465.80;;;150.90;;
8562;SDS011;16392;52.508;13.468;2022-09-24T10:39:25;462.67;;;150.02;;
8562;SDS011;16392;52.508;13.468;2022-09-24T10:41:53;462.13;;;148.10;;
8562;SDS011;16392;52.508;13.468;2022-09-24T10:44:21;456.95;;;135.73;;
8562;SDS011;16392;52.508;13.468;2022-09-24T10:46:50;464.00;;;148.77;;
8562;SDS011;16392;52.508;13.468;2022-09-24T10:49:54;461.73;;;144.77;;
8562;SDS011;16392;52.508;13.468;2022-09-24T10:52:39;459.50;;;137.35;;
8562;SDS011;16392;52.508;13.468;2022-09-24T10:55:16;464.40;;;149.27;;
8562;SDS011;16392;52.508;13.468;2022-09-24T10:57:54;460.13;;;141.40;;
8562;SDS011;16392;52.508;13.468;2022-09-24T11:00:27;458.00;;;134.98;;
8562;SDS011;16392;52.508;13.468;2022-09-24T11:03:21;462.63;;;142.48;;
8562;SDS011;16392;52.508;13.468;2022-09-24T11:06:10;454.90;;;135.52;;
8562;SDS011;16392;52.508;13.468;2022-09-24T11:08:50;464.13;;;144.55;;
8562;SDS011;16392;52.508;13.468;2022-09-24T11:11:29;461.90;;;147.45;;
8562;SDS011;16392;52.508;13.468;2022-09-24T11:14:12;465.42;;;152.20;;
8562;SDS011;16392;52.508;13.468;2022-09-24T11:16:56;464.60;;;155.88;;
8562;SDS011;16392;52.508;13.468;2022-09-24T11:19:36;464.55;;;148.95;;
8562;SDS011;16392;52.508;13.468;2022-09-24T11:22:28;470.30;;;165.27;;
8562;SDS011;16392;52.508;13.468;2022-09-24T11:25:10;466.73;;;160.68;;
8562;SDS011;16392;52.508;13.468;2022-09-24T11:27:50;472.45;;;167.02;;
8562;SDS011;16392;52.508;13.468;2022-09-24T11:30:28;473.92;;;176.77;;
8562;SDS011;16392;52.508;13.468;2022-09-24T11:33:04;479.35;;;192.15;;
8562;SDS011;16392;52.508;13.468;2022-09-24T11:35:49;484.83;;;195.38;;
8562;SDS011;16392;52.508;13.468;2022-09-24T11:38:27;483.02;;;201.23;;
8562;SDS011;16392;52.508;13.468;2022-09-24T11:41:13;484.25;;;199.43;;
8562;SDS011;16392;52.508;13.468;2022-09-24T11:43:52;486.13;;;214.27;;
8562;SDS011;16392;52.508;13.468;2022-09-24T11:46:36;481.73;;;203.10;;
8562;SDS011;16392;52.508;13.468;2022-09-24T11:52:09;482.05;;;205.82;;
8562;SDS011;16392;52.508;13.468;2022-09-24T11:54:49;479.95;;;200.02;;
8562;SDS011;16392;52.508;13.468;2022-09-24T11:57:27;479.00;;;188.85;;
8562;SDS011;16392;52.508;13.468;2022-09-24T11:59:58;478.60;;;194.38;;
8562;SDS011;16392;52.508;13.468;2022-09-24T12:02:31;477.40;;;191.25;;
8562;SDS011;16392;52.508;13.468;2022-09-24T12:05:02;479.13;;;194.70;;
8562;SDS011;16392;52.508;13.468;2022-09-24T12:07:35;479.65;;;203.38;;
8562;SDS011;16392;52.508;13.468;2022-09-24T12:10:17;474.17;;;187.52;;
8562;SDS011;16392;52.508;13.468;2022-09-24T12:12:51;478.73;;;200.43;;
8562;SDS011;16392;52.508;13.468;2022-09-24T12:15:23;475.98;;;194.32;;
8562;SDS011;16392;52.508;13.468;2022-09-24T12:17:56;478.60;;;196.18;;
8562;SDS011;16392;52.508;13.468;2022-09-24T12:20:28;478.88;;;194.32;;
8562;SDS011;16392;52.508;13.468;2022-09-24T12:22:58;476.38;;;189.77;;
8562;SDS011;16392;52.508;13.468;2022-09-24T12:25:28;475.70;;;189.50;;
8562;SDS011;16392;52.508;13.468;2022-09-24T12:28:03;474.80;;;177.23;;
8562;SDS011;16392;52.508;13.468;2022-09-24T12:30:32;474.17;;;178.75;;
8562;SDS011;16392;52.508;13.468;2022-09-24T12:33:19;469.73;;;170.35;;
8562;SDS011;16392;52.508;13.468;2022-09-24T12:35:59;478.23;;;185.30;;
8562;SDS011;16392;52.508;13.468;2022-09-24T12:38:33;470.02;;;169.38;;
8562;SDS011;16392;52.508;13.468;2022-09-24T12:41:16;470.17;;;168.77;;
8562;SDS011;16392;52.508;13.468;2022-09-24T12:43:50;471.10;;;176.13;;
8562;SDS011;16392;52.508;13.468;2022-09-24T12:46:24;470.35;;;175.93;;
8562;SDS011;16392;52.508;13.468;2022-09-24T12:48:54;473.67;;;175.57;;
8562;SDS011;16392;52.508;13.468;2022-09-24T12:51:21;478.20;;;186.05;;
8562;SDS011;16392;52.508;13.468;2022-09-24T12:53:58;474.70;;;185.68;;
8562;SDS011;16392;52.508;13.468;2022-09-24T12:56:30;477.08;;;187.73;;
8562;SDS011;16392;52.508;13.468;2022-09-24T12:58:58;478.75;;;186.75;;
8562;SDS011;16392;52.508;13.468;2022-09-24T13:01:25;478.08;;;190.32;;
8562;SDS011;16392;52.508;13.468;2022-09-24T13:04:01;484.70;;;215.77;;
8562;SDS011;16392;52.508;13.468;2022-09-24T13:06:32;480.60;;;197.55;;
8562;SDS011;16392;52.508;13.468;2022-09-24T13:09:01;480.92;;;203.13;;
8562;SDS011;16392;52.508;13.468;2022-09-24T13:11:30;485.60;;;223.80;;
8562;SDS011;16392;52.508;13.468;2022-09-24T13:14:06;484.38;;;215.32;;
8562;SDS011;16392;52.508;13.468;2022-09-24T13:16:44;480.63;;;201.60;;
8562;SDS011;16392;52.508;13.468;2022-09-24T13:19:20;480.67;;;211.02;;
8562;SDS011;16392;52.508;13.468;2022-09-24T13:21:51;480.67;;;206.73;;
8562;SDS011;16392;52.508;13.468;2022-09-24T13:24:23;480.88;;;206.10;;
8562;SDS011;16392;52.508;13.468;2022-09-24T13:26:53;480.52;;;200.55;;
8562;SDS011;16392;52.508;13.468;2022-09-24T13:29:21;482.33;;;206.95;;
8562;SDS011;16392;52.508;13.468;2022-09-24T13:31:50;480.13;;;204.35;;
8562;SDS011;16392;52.508;13.468;2022-09-24T13:34:21;482.98;;;202.55;;
8562;SDS011;16392;52.508;13.468;2022-09-24T13:36:53;485.48;;;220.70;;
8562;SDS011;16392;52.508;13.468;2022-09-24T13:39:25;480.00;;;200.10;;
8562;SDS011;16392;52.508;13.468;2022-09-24T13:41:59;481.42;;;208.65;;
8562;SDS011;16392;52.508;13.468;2022-09-24T13:44:32;478.30;;;197.65;;
8562;SDS011;16392;52.508;13.468;2022-09-24T13:47:04;477.55;;;195.02;;
8562;SDS011;16392;52.508;13.468;2022-09-24T13:49:37;477.08;;;194.25;;
8562;SDS011;16392;52.508;13.468;2022-09-24T13:52:10;480.95;;;204.32;;
8562;SDS011;16392;52.508;13.468;2022-09-24T13:54:46;477.65;;;195.48;;
8562;SDS011;16392;52.508;13.468;2022-09-24T13:57:19;479.92;;;205.10;;
8562;SDS011;16392;52.508;13.468;2022-09-24T13:59:48;482.42;;;208.43;;
8562;SDS011;16392;52.508;13.468;2022-09-24T14:02:21;479.77;;;201.20;;
8562;SDS011;16392;52.508;13.468;2022-09-24T14:04:52;484.08;;;192.02;;
8562;SDS011;16392;52.508;13.468;2022-09-24T14:07:20;476.67;;;189.82;;
8562;SDS011;16392;52.508;13.468;2022-09-24T14:09:49;479.52;;;204.10;;
8562;SDS011;16392;52.508;13.468;2022-09-24T14:12:26;483.55;;;209.50;;
8562;SDS011;16392;52.508;13.468;2022-09-24T14:14:53;476.27;;;199.35;;
8562;SDS011;16392;52.508;13.468;2022-09-24T14:17:22;481.45;;;202.63;;
8562;SDS011;16392;52.508;13.468;2022-09-24T14:19:53;480.75;;;209.25;;
8562;SDS011;16392;52.508;13.468;2022-09-24T14:22:21;475.85;;;193.98;;
8562;SDS011;16392;52.508;13.468;2022-09-24T14:24:53;475.08;;;183.45;;
8562;SDS011;16392;52.508;13.468;2022-09-24T14:27:21;474.92;;;188.95;;